sensor_id;sensor_type;location;lat;lon;timestamp;P1;durP1;ratioP1;P2;durP2;ratioP2
57101;SDS011;42982;54.558;18.508;2022-08-19T00:00:07;17.83;;;9.50;;
57101;SDS011;42982;54.558;18.508;2022-08-19T00:01:17;19.60;;;9.35;;
57101;SDS011;42982;54.558;18.508;2022-08-19T00:02:18;15.90;;;9.15;;
57101;SDS011;42982;54.558;18.508;2022-08-19T00:03:21;19.23;;;10.13;;
57101;SDS011;42982;54.558;18.508;2022-08-19T00:04:31;19.45;;;9.65;;
57101;SDS011;42982;54.558;18.508;2022-08-19T00:05:36;12.57;;;9.15;;
57101;SDS011;42982;54.558;18.508;2022-08-19T00:06:39;16.90;;;9.50;;
57101;SDS011;42982;54.558;18.508;2022-08-19T00:07:45;14.68;;;9.18;;
57101;SDS011;42982;54.558;18.508;2022-08-19T00:08:53;18.15;;;9.52;;
57101;SDS011;42982;54.558;18.508;2022-08-19T00:09:59;15.68;;;9.75;;
57101;SDS011;42982;54.558;18.508;2022-08-19T00:11:03;18.77;;;9.02;;
57101;SDS011;42982;54.558;18.508;2022-08-19T00:12:08;13.27;;;9.25;;
57101;SDS011;42982;54.558;18.508;2022-08-19T00:13:12;20.25;;;9.35;;
57101;SDS011;42982;54.558;18.508;2022-08-19T00:14:15;14.40;;;9.27;;
57101;SDS011;42982;54.558;18.508;2022-08-19T00:15:23;14.40;;;9.37;;
57101;SDS011;42982;54.558;18.508;2022-08-19T00:16:27;16.40;;;9.02;;
57101;SDS011;42982;54.558;18.508;2022-08-19T00:17:30;13.60;;;9.75;;
57101;SDS011;42982;54.558;18.508;2022-08-19T00:18:34;15.60;;;9.57;;
57101;SDS011;42982;54.558;18.508;2022-08-19T00:19:39;14.52;;;9.77;;
57101;SDS011;42982;54.558;18.508;2022-08-19T00:20:46;14.60;;;9.48;;
57101;SDS011;42982;54.558;18.508;2022-08-19T00:21:48;17.75;;;9.50;;
57101;SDS011;42982;54.558;18.508;2022-08-19T00:22:52;17.80;;;9.52;;
57101;SDS011;42982;54.558;18.508;2022-08-19T00:23:59;14.95;;;9.40;;
57101;SDS011;42982;54.558;18.508;2022-08-19T00:25:05;14.90;;;10.13;;
57101;SDS011;42982;54.558;18.508;2022-08-19T00:26:15;16.67;;;10.15;;
57101;SDS011;42982;54.558;18.508;2022-08-19T00:27:17;15.23;;;10.05;;
57101;SDS011;42982;54.558;18.508;2022-08-19T00:28:21;13.15;;;9.35;;
57101;SDS011;42982;54.558;18.508;2022-08-19T00:29:31;14.85;;;9.75;;
57101;SDS011;42982;54.558;18.508;2022-08-19T00:30:36;14.85;;;9.68;;
57101;SDS011;42982;54.558;18.508;2022-08-19T00:31:39;14.57;;;9.65;;
57101;SDS011;42982;54.558;18.508;2022-08-19T00:32:47;16.63;;;10.02;;
57101;SDS011;42982;54.558;18.508;2022-08-19T00:33:54;14.55;;;9.15;;
57101;SDS011;42982;54.558;18.508;2022-08-19T00:34:56;13.68;;;9.18;;
57101;SDS011;42982;54.558;18.508;2022-08-19T00:36:01;16.40;;;9.55;;
57101;SDS011;42982;54.558;18.508;2022-08-19T00:37:07;15.50;;;9.60;;
57101;SDS011;42982;54.558;18.508;2022-08-19T00:38:14;16.20;;;9.52;;
57101;SDS011;42982;54.558;18.508;2022-08-19T00:39:18;13.52;;;9.15;;
57101;SDS011;42982;54.558;18.508;2022-08-19T00:40:20;13.38;;;9.90;;
57101;SDS011;42982;54.558;18.508;2022-08-19T00:41:25;18.58;;;9.57;;
57101;SDS011;42982;54.558;18.508;2022-08-19T00:42:27;16.77;;;9.35;;
57101;SDS011;42982;54.558;18.508;2022-08-19T00:43:30;15.13;;;9.60;;
57101;SDS011;42982;54.558;18.508;2022-08-19T00:44:34;14.95;;;9.27;;
57101;SDS011;42982;54.558;18.508;2022-08-19T00:45:41;19.17;;;9.50;;
57101;SDS011;42982;54.558;18.508;2022-08-19T00:46:47;19.25;;;10.55;;
57101;SDS011;42982;54.558;18.508;2022-08-19T00:47:56;15.65;;;9.75;;
57101;SDS011;42982;54.558;18.508;2022-08-19T00:48:58;13.18;;;9.13;;
57101;SDS011;42982;54.558;18.508;2022-08-19T00:50:10;19.98;;;10.30;;
57101;SDS011;42982;54.558;18.508;2022-08-19T00:51:15;17.80;;;11.05;;
57101;SDS011;42982;54.558;18.508;2022-08-19T00:52:24;19.17;;;10.60;;
57101;SDS011;42982;54.558;18.508;2022-08-19T00:53:32;20.13;;;10.45;;
57101;SDS011;42982;54.558;18.508;2022-08-19T00:54:37;18.02;;;10.20;;
57101;SDS011;42982;54.558;18.508;2022-08-19T00:55:45;16.23;;;10.38;;
57101;SDS011;42982;54.558;18.508;2022-08-19T00:56:53;18.60;;;10.57;;
57101;SDS011;42982;54.558;18.508;2022-08-19T00:58:04;15.27;;;10.02;;
57101;SDS011;42982;54.558;18.508;2022-08-19T00:59:09;17.30;;;10.35;;
57101;SDS011;42982;54.558;18.508;2022-08-19T01:00:15;14.25;;;9.77;;
57101;SDS011;42982;54.558;18.508;2022-08-19T01:01:19;16.77;;;9.70;;
57101;SDS011;42982;54.558;18.508;2022-08-19T01:02:21;17.20;;;9.85;;
57101;SDS011;42982;54.558;18.508;2022-08-19T01:03:23;15.02;;;9.93;;
57101;SDS011;42982;54.558;18.508;2022-08-19T01:04:31;16.17;;;10.05;;
57101;SDS011;42982;54.558;18.508;2022-08-19T01:05:34;14.68;;;9.25;;
57101;SDS011;42982;54.558;18.508;2022-08-19T01:06:41;15.23;;;9.55;;
57101;SDS011;42982;54.558;18.508;2022-08-19T01:07:42;16.38;;;9.70;;
57101;SDS011;42982;54.558;18.508;2022-08-19T01:08:45;21.52;;;11.00;;
57101;SDS011;42982;54.558;18.508;2022-08-19T01:09:50;16.38;;;9.70;;
57101;SDS011;42982;54.558;18.508;2022-08-19T01:10:58;22.75;;;9.70;;
57101;SDS011;42982;54.558;18.508;2022-08-19T01:12:11;18.15;;;10.07;;
57101;SDS011;42982;54.558;18.508;2022-08-19T01:13:20;19.85;;;10.52;;
57101;SDS011;42982;54.558;18.508;2022-08-19T01:14:23;15.98;;;10.95;;
57101;SDS011;42982;54.558;18.508;2022-08-19T01:15:31;14.70;;;10.65;;
57101;SDS011;42982;54.558;18.508;2022-08-19T01:16:48;19.27;;;10.80;;
57101;SDS011;42982;54.558;18.508;2022-08-19T01:18:01;19.50;;;10.57;;
57101;SDS011;42982;54.558;18.508;2022-08-19T01:19:31;22.58;;;11.27;;
57101;SDS011;42982;54.558;18.508;2022-08-19T01:20:34;17.70;;;10.75;;
57101;SDS011;42982;54.558;18.508;2022-08-19T01:21:40;19.63;;;10.57;;
57101;SDS011;42982;54.558;18.508;2022-08-19T01:22:48;17.77;;;9.80;;
57101;SDS011;42982;54.558;18.508;2022-08-19T01:23:55;13.75;;;10.07;;
57101;SDS011;42982;54.558;18.508;2022-08-19T01:24:57;18.48;;;10.80;;
57101;SDS011;42982;54.558;18.508;2022-08-19T01:25:59;25.45;;;11.40;;
57101;SDS011;42982;54.558;18.508;2022-08-19T01:27:04;17.92;;;10.82;;
57101;SDS011;42982;54.558;18.508;2022-08-19T01:28:06;18.90;;;10.30;;
57101;SDS011;42982;54.558;18.508;2022-08-19T01:29:13;18.02;;;10.18;;
57101;SDS011;42982;54.558;18.508;2022-08-19T01:30:24;15.68;;;11.43;;
57101;SDS011;42982;54.558;18.508;2022-08-19T01:31:31;15.63;;;10.30;;
57101;SDS011;42982;54.558;18.508;2022-08-19T01:32:33;16.88;;;10.43;;
57101;SDS011;42982;54.558;18.508;2022-08-19T01:33:40;14.75;;;10.45;;
57101;SDS011;42982;54.558;18.508;2022-08-19T01:34:44;18.60;;;10.68;;
57101;SDS011;42982;54.558;18.508;2022-08-19T01:35:47;17.65;;;10.85;;
57101;SDS011;42982;54.558;18.508;2022-08-19T01:36:53;22.40;;;10.75;;
57101;SDS011;42982;54.558;18.508;2022-08-19T01:37:59;24.60;;;10.98;;
57101;SDS011;42982;54.558;18.508;2022-08-19T01:39:10;17.63;;;11.88;;
57101;SDS011;42982;54.558;18.508;2022-08-19T01:40:20;15.90;;;10.32;;
57101;SDS011;42982;54.558;18.508;2022-08-19T01:41:23;16.17;;;10.32;;
57101;SDS011;42982;54.558;18.508;2022-08-19T01:42:25;16.25;;;11.65;;
57101;SDS011;42982;54.558;18.508;2022-08-19T01:43:34;17.90;;;10.88;;
57101;SDS011;42982;54.558;18.508;2022-08-19T01:44:36;20.08;;;11.68;;
57101;SDS011;42982;54.558;18.508;2022-08-19T01:45:46;17.05;;;11.20;;
57101;SDS011;42982;54.558;18.508;2022-08-19T01:46:51;24.23;;;10.93;;
57101;SDS011;42982;54.558;18.508;2022-08-19T01:47:55;23.52;;;10.70;;
57101;SDS011;42982;54.558;18.508;2022-08-19T01:49:02;20.77;;;11.52;;
57101;SDS011;42982;54.558;18.508;2022-08-19T01:50:06;20.88;;;10.73;;
57101;SDS011;42982;54.558;18.508;2022-08-19T01:51:10;21.13;;;11.48;;
57101;SDS011;42982;54.558;18.508;2022-08-19T01:52:19;21.33;;;11.45;;
57101;SDS011;42982;54.558;18.508;2022-08-19T01:53:22;21.80;;;11.52;;
57101;SDS011;42982;54.558;18.508;2022-08-19T01:54:25;24.98;;;10.85;;
57101;SDS011;42982;54.558;18.508;2022-08-19T01:55:29;20.80;;;10.90;;
57101;SDS011;42982;54.558;18.508;2022-08-19T01:56:33;26.83;;;11.48;;
57101;SDS011;42982;54.558;18.508;2022-08-19T01:57:41;25.77;;;11.80;;
57101;SDS011;42982;54.558;18.508;2022-08-19T01:58:51;23.40;;;11.70;;
57101;SDS011;42982;54.558;18.508;2022-08-19T01:59:59;21.95;;;11.23;;
57101;SDS011;42982;54.558;18.508;2022-08-19T02:01:12;27.73;;;11.35;;
57101;SDS011;42982;54.558;18.508;2022-08-19T02:02:16;18.40;;;10.70;;
57101;SDS011;42982;54.558;18.508;2022-08-19T02:03:21;21.38;;;10.93;;
57101;SDS011;42982;54.558;18.508;2022-08-19T02:04:29;24.10;;;12.32;;
57101;SDS011;42982;54.558;18.508;2022-08-19T02:05:31;20.23;;;10.63;;
57101;SDS011;42982;54.558;18.508;2022-08-19T02:06:38;20.00;;;11.10;;
57101;SDS011;42982;54.558;18.508;2022-08-19T02:07:42;25.15;;;11.48;;
57101;SDS011;42982;54.558;18.508;2022-08-19T02:08:45;20.58;;;10.95;;
57101;SDS011;42982;54.558;18.508;2022-08-19T02:09:48;23.98;;;12.27;;
57101;SDS011;42982;54.558;18.508;2022-08-19T02:10:54;17.80;;;11.55;;
57101;SDS011;42982;54.558;18.508;2022-08-19T02:11:59;28.35;;;13.02;;
57101;SDS011;42982;54.558;18.508;2022-08-19T02:13:04;23.90;;;14.35;;
57101;SDS011;42982;54.558;18.508;2022-08-19T02:14:06;27.88;;;14.55;;
57101;SDS011;42982;54.558;18.508;2022-08-19T02:15:09;28.70;;;14.52;;
57101;SDS011;42982;54.558;18.508;2022-08-19T02:16:13;25.98;;;14.05;;
57101;SDS011;42982;54.558;18.508;2022-08-19T02:17:19;22.88;;;13.63;;
57101;SDS011;42982;54.558;18.508;2022-08-19T02:18:23;29.30;;;12.45;;
57101;SDS011;42982;54.558;18.508;2022-08-19T02:19:28;27.42;;;12.25;;
57101;SDS011;42982;54.558;18.508;2022-08-19T02:20:35;29.45;;;13.38;;
57101;SDS011;42982;54.558;18.508;2022-08-19T02:21:41;29.73;;;12.13;;
57101;SDS011;42982;54.558;18.508;2022-08-19T02:22:44;24.35;;;11.85;;
57101;SDS011;42982;54.558;18.508;2022-08-19T02:23:49;23.80;;;12.55;;
57101;SDS011;42982;54.558;18.508;2022-08-19T02:24:55;30.70;;;12.68;;
57101;SDS011;42982;54.558;18.508;2022-08-19T02:25:58;23.90;;;12.25;;
57101;SDS011;42982;54.558;18.508;2022-08-19T02:27:00;22.50;;;11.25;;
57101;SDS011;42982;54.558;18.508;2022-08-19T02:28:05;27.20;;;12.55;;
57101;SDS011;42982;54.558;18.508;2022-08-19T02:29:12;25.52;;;12.10;;
57101;SDS011;42982;54.558;18.508;2022-08-19T02:30:14;26.52;;;12.20;;
57101;SDS011;42982;54.558;18.508;2022-08-19T02:31:20;19.75;;;11.77;;
57101;SDS011;42982;54.558;18.508;2022-08-19T02:32:25;24.90;;;12.02;;
57101;SDS011;42982;54.558;18.508;2022-08-19T02:33:28;23.73;;;12.50;;
57101;SDS011;42982;54.558;18.508;2022-08-19T02:34:33;26.30;;;11.57;;
57101;SDS011;42982;54.558;18.508;2022-08-19T02:35:40;27.10;;;12.63;;
57101;SDS011;42982;54.558;18.508;2022-08-19T02:36:49;32.38;;;13.52;;
57101;SDS011;42982;54.558;18.508;2022-08-19T02:37:57;25.50;;;12.88;;
57101;SDS011;42982;54.558;18.508;2022-08-19T02:39:18;27.02;;;12.93;;
57101;SDS011;42982;54.558;18.508;2022-08-19T02:40:21;23.92;;;13.55;;
57101;SDS011;42982;54.558;18.508;2022-08-19T02:41:28;25.88;;;12.27;;
57101;SDS011;42982;54.558;18.508;2022-08-19T02:42:31;24.08;;;12.27;;
57101;SDS011;42982;54.558;18.508;2022-08-19T02:43:34;25.02;;;12.25;;
57101;SDS011;42982;54.558;18.508;2022-08-19T02:44:39;19.27;;;11.93;;
57101;SDS011;42982;54.558;18.508;2022-08-19T02:45:48;20.88;;;12.68;;
57101;SDS011;42982;54.558;18.508;2022-08-19T02:46:56;27.23;;;12.25;;
57101;SDS011;42982;54.558;18.508;2022-08-19T02:48:02;18.73;;;12.68;;
57101;SDS011;42982;54.558;18.508;2022-08-19T02:49:06;20.08;;;12.57;;
57101;SDS011;42982;54.558;18.508;2022-08-19T02:50:19;25.08;;;12.07;;
57101;SDS011;42982;54.558;18.508;2022-08-19T02:51:26;19.98;;;12.00;;
57101;SDS011;42982;54.558;18.508;2022-08-19T02:52:33;23.58;;;11.65;;
57101;SDS011;42982;54.558;18.508;2022-08-19T02:53:35;25.83;;;11.60;;
57101;SDS011;42982;54.558;18.508;2022-08-19T02:54:40;22.60;;;12.15;;
57101;SDS011;42982;54.558;18.508;2022-08-19T02:55:43;23.88;;;11.88;;
57101;SDS011;42982;54.558;18.508;2022-08-19T02:56:49;18.17;;;11.68;;
57101;SDS011;42982;54.558;18.508;2022-08-19T02:57:54;25.80;;;12.00;;
57101;SDS011;42982;54.558;18.508;2022-08-19T02:59:02;19.27;;;12.13;;
57101;SDS011;42982;54.558;18.508;2022-08-19T03:00:09;19.25;;;12.13;;
57101;SDS011;42982;54.558;18.508;2022-08-19T03:01:34;21.60;;;12.32;;
57101;SDS011;42982;54.558;18.508;2022-08-19T03:02:41;17.02;;;12.13;;
57101;SDS011;42982;54.558;18.508;2022-08-19T03:03:46;21.13;;;13.00;;
57101;SDS011;42982;54.558;18.508;2022-08-19T03:04:48;26.48;;;12.63;;
57101;SDS011;42982;54.558;18.508;2022-08-19T03:06:07;24.38;;;12.70;;
57101;SDS011;42982;54.558;18.508;2022-08-19T03:07:14;19.40;;;11.55;;
57101;SDS011;42982;54.558;18.508;2022-08-19T03:08:16;20.60;;;11.85;;
57101;SDS011;42982;54.558;18.508;2022-08-19T03:09:19;20.88;;;12.20;;
57101;SDS011;42982;54.558;18.508;2022-08-19T03:10:21;48.40;;;23.73;;
57101;SDS011;42982;54.558;18.508;2022-08-19T03:11:27;21.15;;;13.02;;
57101;SDS011;42982;54.558;18.508;2022-08-19T03:12:37;30.90;;;15.95;;
57101;SDS011;42982;54.558;18.508;2022-08-19T03:13:42;26.33;;;14.52;;
57101;SDS011;42982;54.558;18.508;2022-08-19T03:14:46;26.15;;;13.50;;
57101;SDS011;42982;54.558;18.508;2022-08-19T03:15:56;18.70;;;13.35;;
57101;SDS011;42982;54.558;18.508;2022-08-19T03:17:00;28.15;;;12.68;;
57101;SDS011;42982;54.558;18.508;2022-08-19T03:18:04;24.10;;;12.93;;
57101;SDS011;42982;54.558;18.508;2022-08-19T03:19:06;21.02;;;12.95;;
57101;SDS011;42982;54.558;18.508;2022-08-19T03:20:08;24.30;;;13.02;;
57101;SDS011;42982;54.558;18.508;2022-08-19T03:21:18;22.48;;;12.73;;
57101;SDS011;42982;54.558;18.508;2022-08-19T03:22:23;23.58;;;12.60;;
57101;SDS011;42982;54.558;18.508;2022-08-19T03:23:26;20.85;;;12.85;;
57101;SDS011;42982;54.558;18.508;2022-08-19T03:24:31;22.88;;;12.35;;
57101;SDS011;42982;54.558;18.508;2022-08-19T03:25:36;20.90;;;13.30;;
57101;SDS011;42982;54.558;18.508;2022-08-19T03:26:42;21.95;;;12.20;;
57101;SDS011;42982;54.558;18.508;2022-08-19T03:27:56;18.15;;;11.60;;
57101;SDS011;42982;54.558;18.508;2022-08-19T03:29:03;26.27;;;12.38;;
57101;SDS011;42982;54.558;18.508;2022-08-19T03:30:09;20.73;;;12.18;;
57101;SDS011;42982;54.558;18.508;2022-08-19T03:31:15;23.70;;;11.70;;
57101;SDS011;42982;54.558;18.508;2022-08-19T03:32:17;19.50;;;11.98;;
57101;SDS011;42982;54.558;18.508;2022-08-19T03:33:22;18.20;;;11.75;;
57101;SDS011;42982;54.558;18.508;2022-08-19T03:34:25;26.83;;;13.38;;
57101;SDS011;42982;54.558;18.508;2022-08-19T03:35:31;23.90;;;12.38;;
57101;SDS011;42982;54.558;18.508;2022-08-19T03:36:37;21.50;;;12.25;;
57101;SDS011;42982;54.558;18.508;2022-08-19T03:37:39;20.92;;;12.18;;
57101;SDS011;42982;54.558;18.508;2022-08-19T03:38:42;16.33;;;11.80;;
57101;SDS011;42982;54.558;18.508;2022-08-19T03:39:46;22.00;;;11.75;;
57101;SDS011;42982;54.558;18.508;2022-08-19T03:40:51;24.70;;;12.15;;
57101;SDS011;42982;54.558;18.508;2022-08-19T03:41:55;25.17;;;12.48;;
57101;SDS011;42982;54.558;18.508;2022-08-19T03:43:03;19.75;;;12.25;;
57101;SDS011;42982;54.558;18.508;2022-08-19T03:44:09;25.10;;;11.60;;
57101;SDS011;42982;54.558;18.508;2022-08-19T03:45:14;22.30;;;12.10;;
57101;SDS011;42982;54.558;18.508;2022-08-19T03:47:32;18.50;;;11.57;;
57101;SDS011;42982;54.558;18.508;2022-08-19T03:48:38;19.83;;;11.73;;
57101;SDS011;42982;54.558;18.508;2022-08-19T03:49:41;20.00;;;12.35;;
57101;SDS011;42982;54.558;18.508;2022-08-19T03:50:48;21.05;;;12.30;;
57101;SDS011;42982;54.558;18.508;2022-08-19T03:51:53;20.52;;;12.00;;
57101;SDS011;42982;54.558;18.508;2022-08-19T03:53:01;20.00;;;12.05;;
57101;SDS011;42982;54.558;18.508;2022-08-19T03:54:12;25.27;;;12.55;;
57101;SDS011;42982;54.558;18.508;2022-08-19T03:55:22;16.00;;;11.75;;
57101;SDS011;42982;54.558;18.508;2022-08-19T03:56:27;28.40;;;12.27;;
57101;SDS011;42982;54.558;18.508;2022-08-19T03:57:30;22.00;;;12.20;;
57101;SDS011;42982;54.558;18.508;2022-08-19T03:58:38;25.02;;;12.35;;
57101;SDS011;42982;54.558;18.508;2022-08-19T03:59:41;20.15;;;12.57;;
57101;SDS011;42982;54.558;18.508;2022-08-19T04:00:45;22.25;;;12.70;;
57101;SDS011;42982;54.558;18.508;2022-08-19T04:01:47;17.45;;;11.40;;
57101;SDS011;42982;54.558;18.508;2022-08-19T04:02:51;23.58;;;12.20;;
57101;SDS011;42982;54.558;18.508;2022-08-19T04:03:59;26.13;;;12.40;;
57101;SDS011;42982;54.558;18.508;2022-08-19T04:05:03;20.05;;;12.30;;
57101;SDS011;42982;54.558;18.508;2022-08-19T04:07:35;27.13;;;12.32;;
57101;SDS011;42982;54.558;18.508;2022-08-19T04:08:40;31.08;;;12.10;;
57101;SDS011;42982;54.558;18.508;2022-08-19T04:09:45;23.92;;;12.05;;
57101;SDS011;42982;54.558;18.508;2022-08-19T04:10:53;21.85;;;12.02;;
57101;SDS011;42982;54.558;18.508;2022-08-19T04:11:58;24.15;;;11.70;;
57101;SDS011;42982;54.558;18.508;2022-08-19T04:13:03;20.83;;;11.32;;
57101;SDS011;42982;54.558;18.508;2022-08-19T04:14:06;22.70;;;12.70;;
57101;SDS011;42982;54.558;18.508;2022-08-19T04:15:10;25.75;;;12.40;;
57101;SDS011;42982;54.558;18.508;2022-08-19T04:16:15;24.02;;;13.68;;
57101;SDS011;42982;54.558;18.508;2022-08-19T04:17:20;21.08;;;13.10;;
57101;SDS011;42982;54.558;18.508;2022-08-19T04:18:25;20.50;;;12.52;;
57101;SDS011;42982;54.558;18.508;2022-08-19T04:19:30;23.67;;;13.07;;
57101;SDS011;42982;54.558;18.508;2022-08-19T04:20:38;22.13;;;13.43;;
57101;SDS011;42982;54.558;18.508;2022-08-19T04:21:46;25.58;;;12.32;;
57101;SDS011;42982;54.558;18.508;2022-08-19T04:22:53;21.30;;;11.88;;
57101;SDS011;42982;54.558;18.508;2022-08-19T04:23:56;22.75;;;12.90;;
57101;SDS011;42982;54.558;18.508;2022-08-19T04:24:58;22.48;;;11.93;;
57101;SDS011;42982;54.558;18.508;2022-08-19T04:26:01;17.48;;;11.65;;
57101;SDS011;42982;54.558;18.508;2022-08-19T04:27:03;22.50;;;11.70;;
57101;SDS011;42982;54.558;18.508;2022-08-19T04:28:08;19.25;;;12.00;;
57101;SDS011;42982;54.558;18.508;2022-08-19T04:29:14;16.15;;;11.40;;
57101;SDS011;42982;54.558;18.508;2022-08-19T04:30:27;24.35;;;12.80;;
57101;SDS011;42982;54.558;18.508;2022-08-19T04:31:31;25.15;;;13.10;;
57101;SDS011;42982;54.558;18.508;2022-08-19T04:32:37;20.90;;;12.98;;
57101;SDS011;42982;54.558;18.508;2022-08-19T04:33:39;26.60;;;13.02;;
57101;SDS011;42982;54.558;18.508;2022-08-19T04:34:46;22.77;;;12.95;;
57101;SDS011;42982;54.558;18.508;2022-08-19T04:35:51;25.67;;;13.52;;
57101;SDS011;42982;54.558;18.508;2022-08-19T04:36:56;22.52;;;12.68;;
57101;SDS011;42982;54.558;18.508;2022-08-19T04:38:01;20.33;;;12.07;;
57101;SDS011;42982;54.558;18.508;2022-08-19T04:39:11;18.90;;;11.73;;
57101;SDS011;42982;54.558;18.508;2022-08-19T04:40:19;18.10;;;12.65;;
57101;SDS011;42982;54.558;18.508;2022-08-19T04:41:40;26.90;;;12.07;;
57101;SDS011;42982;54.558;18.508;2022-08-19T04:43:00;19.52;;;10.70;;
57101;SDS011;42982;54.558;18.508;2022-08-19T04:44:08;20.05;;;10.60;;
57101;SDS011;42982;54.558;18.508;2022-08-19T04:45:13;15.77;;;11.05;;
57101;SDS011;42982;54.558;18.508;2022-08-19T04:46:16;27.05;;;10.98;;
57101;SDS011;42982;54.558;18.508;2022-08-19T04:47:21;19.25;;;11.95;;
57101;SDS011;42982;54.558;18.508;2022-08-19T04:48:26;21.77;;;12.35;;
57101;SDS011;42982;54.558;18.508;2022-08-19T04:49:34;22.10;;;11.88;;
57101;SDS011;42982;54.558;18.508;2022-08-19T04:50:39;21.13;;;11.57;;
57101;SDS011;42982;54.558;18.508;2022-08-19T04:51:43;23.05;;;12.60;;
57101;SDS011;42982;54.558;18.508;2022-08-19T04:52:51;21.20;;;13.60;;
57101;SDS011;42982;54.558;18.508;2022-08-19T04:53:55;18.42;;;11.43;;
57101;SDS011;42982;54.558;18.508;2022-08-19T04:54:57;17.27;;;12.10;;
57101;SDS011;42982;54.558;18.508;2022-08-19T04:56:04;21.38;;;12.18;;
57101;SDS011;42982;54.558;18.508;2022-08-19T04:57:15;20.55;;;12.68;;
57101;SDS011;42982;54.558;18.508;2022-08-19T04:58:19;19.15;;;12.20;;
57101;SDS011;42982;54.558;18.508;2022-08-19T04:59:25;23.80;;;12.20;;
57101;SDS011;42982;54.558;18.508;2022-08-19T05:00:29;18.73;;;11.40;;
57101;SDS011;42982;54.558;18.508;2022-08-19T05:01:32;21.55;;;11.85;;
57101;SDS011;42982;54.558;18.508;2022-08-19T05:02:34;26.67;;;12.43;;
57101;SDS011;42982;54.558;18.508;2022-08-19T05:03:38;21.40;;;11.75;;
57101;SDS011;42982;54.558;18.508;2022-08-19T05:04:41;23.75;;;11.77;;
57101;SDS011;42982;54.558;18.508;2022-08-19T05:05:46;15.93;;;11.57;;
57101;SDS011;42982;54.558;18.508;2022-08-19T05:06:53;17.75;;;11.68;;
57101;SDS011;42982;54.558;18.508;2022-08-19T05:08:00;19.33;;;10.88;;
57101;SDS011;42982;54.558;18.508;2022-08-19T05:09:04;21.25;;;11.65;;
57101;SDS011;42982;54.558;18.508;2022-08-19T05:10:06;19.52;;;11.80;;
57101;SDS011;42982;54.558;18.508;2022-08-19T05:11:12;29.77;;;13.02;;
57101;SDS011;42982;54.558;18.508;2022-08-19T05:12:24;18.15;;;12.43;;
57101;SDS011;42982;54.558;18.508;2022-08-19T05:13:27;18.77;;;12.77;;
57101;SDS011;42982;54.558;18.508;2022-08-19T05:14:35;19.98;;;12.18;;
57101;SDS011;42982;54.558;18.508;2022-08-19T05:15:42;17.85;;;12.30;;
57101;SDS011;42982;54.558;18.508;2022-08-19T05:16:45;20.23;;;12.60;;
57101;SDS011;42982;54.558;18.508;2022-08-19T05:17:47;28.92;;;12.77;;
57101;SDS011;42982;54.558;18.508;2022-08-19T05:19:09;19.08;;;12.40;;
57101;SDS011;42982;54.558;18.508;2022-08-19T05:20:35;21.90;;;12.90;;
57101;SDS011;42982;54.558;18.508;2022-08-19T05:21:58;25.58;;;12.68;;
57101;SDS011;42982;54.558;18.508;2022-08-19T05:23:19;18.77;;;12.15;;
57101;SDS011;42982;54.558;18.508;2022-08-19T05:24:30;22.38;;;11.00;;
57101;SDS011;42982;54.558;18.508;2022-08-19T05:25:38;22.73;;;11.25;;
57101;SDS011;42982;54.558;18.508;2022-08-19T05:26:45;19.83;;;11.80;;
57101;SDS011;42982;54.558;18.508;2022-08-19T05:27:48;20.10;;;10.90;;
57101;SDS011;42982;54.558;18.508;2022-08-19T05:28:50;23.55;;;11.73;;
57101;SDS011;42982;54.558;18.508;2022-08-19T05:29:52;17.20;;;12.25;;
57101;SDS011;42982;54.558;18.508;2022-08-19T05:30:57;22.05;;;11.55;;
57101;SDS011;42982;54.558;18.508;2022-08-19T05:32:04;17.92;;;11.00;;
57101;SDS011;42982;54.558;18.508;2022-08-19T05:33:10;16.98;;;11.43;;
57101;SDS011;42982;54.558;18.508;2022-08-19T05:34:12;16.85;;;10.98;;
57101;SDS011;42982;54.558;18.508;2022-08-19T05:35:16;17.45;;;11.45;;
57101;SDS011;42982;54.558;18.508;2022-08-19T05:36:24;24.88;;;10.88;;
57101;SDS011;42982;54.558;18.508;2022-08-19T05:37:28;19.45;;;10.80;;
57101;SDS011;42982;54.558;18.508;2022-08-19T05:38:30;14.75;;;10.25;;
57101;SDS011;42982;54.558;18.508;2022-08-19T05:39:33;13.52;;;9.80;;
57101;SDS011;42982;54.558;18.508;2022-08-19T05:40:41;22.17;;;10.07;;
57101;SDS011;42982;54.558;18.508;2022-08-19T05:41:55;15.82;;;9.77;;
57101;SDS011;42982;54.558;18.508;2022-08-19T05:43:03;16.08;;;9.23;;
57101;SDS011;42982;54.558;18.508;2022-08-19T05:44:05;15.52;;;9.20;;
57101;SDS011;42982;54.558;18.508;2022-08-19T05:45:09;13.75;;;9.20;;
57101;SDS011;42982;54.558;18.508;2022-08-19T05:46:23;14.75;;;8.75;;
57101;SDS011;42982;54.558;18.508;2022-08-19T05:47:25;16.60;;;8.70;;
57101;SDS011;42982;54.558;18.508;2022-08-19T05:48:30;13.80;;;8.57;;
57101;SDS011;42982;54.558;18.508;2022-08-19T05:49:33;17.38;;;9.93;;
57101;SDS011;42982;54.558;18.508;2022-08-19T05:50:35;16.00;;;8.75;;
57101;SDS011;42982;54.558;18.508;2022-08-19T05:51:45;15.82;;;9.75;;
57101;SDS011;42982;54.558;18.508;2022-08-19T05:52:49;15.52;;;9.27;;
57101;SDS011;42982;54.558;18.508;2022-08-19T05:53:54;17.23;;;9.05;;
57101;SDS011;42982;54.558;18.508;2022-08-19T05:55:01;15.57;;;9.23;;
57101;SDS011;42982;54.558;18.508;2022-08-19T05:56:11;18.77;;;9.07;;
57101;SDS011;42982;54.558;18.508;2022-08-19T05:57:17;13.02;;;8.73;;
57101;SDS011;42982;54.558;18.508;2022-08-19T05:58:19;16.27;;;8.98;;
57101;SDS011;42982;54.558;18.508;2022-08-19T05:59:21;14.93;;;8.95;;
57101;SDS011;42982;54.558;18.508;2022-08-19T06:00:26;15.07;;;9.05;;
57101;SDS011;42982;54.558;18.508;2022-08-19T06:01:27;16.30;;;9.02;;
57101;SDS011;42982;54.558;18.508;2022-08-19T06:02:32;12.98;;;9.38;;
57101;SDS011;42982;54.558;18.508;2022-08-19T06:03:36;17.60;;;8.38;;
57101;SDS011;42982;54.558;18.508;2022-08-19T06:04:40;17.30;;;8.43;;
57101;SDS011;42982;54.558;18.508;2022-08-19T06:05:46;14.85;;;8.57;;
57101;SDS011;42982;54.558;18.508;2022-08-19T06:06:51;12.50;;;8.88;;
57101;SDS011;42982;54.558;18.508;2022-08-19T06:07:56;17.45;;;8.85;;
57101;SDS011;42982;54.558;18.508;2022-08-19T06:09:04;16.63;;;8.88;;
57101;SDS011;42982;54.558;18.508;2022-08-19T06:10:12;13.57;;;9.05;;
57101;SDS011;42982;54.558;18.508;2022-08-19T06:12:39;21.55;;;9.95;;
57101;SDS011;42982;54.558;18.508;2022-08-19T06:13:41;16.80;;;9.55;;
57101;SDS011;42982;54.558;18.508;2022-08-19T06:14:43;12.77;;;9.18;;
57101;SDS011;42982;54.558;18.508;2022-08-19T06:15:49;16.80;;;9.80;;
57101;SDS011;42982;54.558;18.508;2022-08-19T06:16:51;14.82;;;9.40;;
57101;SDS011;42982;54.558;18.508;2022-08-19T06:17:53;15.25;;;9.52;;
57101;SDS011;42982;54.558;18.508;2022-08-19T06:18:55;17.75;;;9.63;;
57101;SDS011;42982;54.558;18.508;2022-08-19T06:20:04;16.25;;;9.48;;
57101;SDS011;42982;54.558;18.508;2022-08-19T06:21:15;13.25;;;9.73;;
57101;SDS011;42982;54.558;18.508;2022-08-19T06:22:22;18.45;;;10.10;;
57101;SDS011;42982;54.558;18.508;2022-08-19T06:23:25;17.13;;;10.23;;
57101;SDS011;42982;54.558;18.508;2022-08-19T06:24:31;18.27;;;9.18;;